Time;durP1;ratioP1;P1;durP2;ratioP2;P2;SDS_P1;SDS_P2;PMS_P1;PMS_P2;Temp;Humidity;BMP_temperature;BMP_pressure;BME280_temperature;BME280_humidity;BME280_pressure;Samples;Min_cycle;Max_cycle;Signal;HPM_P1;HPM_P2
2023/06/23 00:00:38;;;;;;;10.40;5.30;;;;;;;18.24;100.00;100392.95;108576;1255;59231;-72
2023/06/23 00:03:04;;;;;;;9.80;5.20;;;;;;;18.21;100.00;100390.63;107815;1256;74486;-73
2023/06/23 00:05:32;;;;;;;9.10;5.40;;;;;;;18.16;100.00;100387.64;107348;1256;70234;-72
2023/06/23 00:07:59;;;;;;;8.30;5.30;;;;;;;18.12;100.00;100385.27;108369;1255;74218;-72
2023/06/23 00:10:26;;;;;;;8.50;5.00;;;;;;;18.07;100.00;100380.28;107651;1255;61951;-73
2023/06/23 00:12:53;;;;;;;9.30;5.30;;;;;;;18.03;100.00;100381.20;108074;1255;59314;-74
2023/06/23 00:15:22;;;;;;;9.80;5.40;;;;;;;18.02;100.00;100384.86;107407;1256;73865;-73
2023/06/23 00:17:50;;;;;;;11.50;6.10;;;;;;;18.00;100.00;100392.29;107062;1258;70049;-71
2023/06/23 00:20:19;;;;;;;12.20;5.80;;;;;;;17.99;100.00;100392.31;107536;1256;72652;-71
2023/06/23 00:22:45;;;;;;;10.30;5.20;;;;;;;17.99;100.00;100388.14;107519;1256;60544;-72
2023/06/23 00:25:13;;;;;;;11.30;6.00;;;;;;;17.99;100.00;100388.73;108171;1255;61708;-73
2023/06/23 00:27:41;;;;;;;12.30;6.00;;;;;;;17.99;100.00;100391.89;106844;1256;73073;-71
2023/06/23 00:30:10;;;;;;;9.50;5.30;;;;;;;18.00;100.00;100394.43;107841;1259;69675;-72
2023/06/23 00:32:38;;;;;;;10.20;5.90;;;;;;;18.01;100.00;100395.80;107038;1260;72290;-72
2023/06/23 00:35:07;;;;;;;12.70;5.70;;;;;;;18.01;100.00;100400.95;106977;1255;61338;-73
2023/06/23 00:37:37;;;;;;;11.40;5.50;;;;;;;18.02;100.00;100404.20;107293;1256;60265;-72
2023/06/23 00:40:10;;;;;;;10.30;5.50;;;;;;;18.03;100.00;100405.83;107930;1260;72842;-72
2023/06/23 00:42:44;;;;;;;10.50;5.90;;;;;;;18.03;100.00;100413.95;107745;1256;491997;-72
2023/06/23 00:45:11;;;;;;;10.10;6.30;;;;;;;18.05;100.00;100415.23;107526;1255;71748;-72
2023/06/23 00:47:39;;;;;;;10.00;6.30;;;;;;;18.06;100.00;100411.61;106957;1255;62100;-72
2023/06/23 00:50:07;;;;;;;10.10;6.10;;;;;;;18.07;100.00;100406.09;108125;1256;59228;-70
2023/06/23 00:52:34;;;;;;;9.70;6.50;;;;;;;18.09;100.00;100406.15;107615;1256;72656;-72
2023/06/23 00:55:03;;;;;;;11.20;6.20;;;;;;;18.11;100.00;100404.52;107188;1255;71232;-72
2023/06/23 00:57:29;;;;;;;9.80;6.50;;;;;;;18.13;100.00;100408.44;108043;1257;72122;-72
2023/06/23 00:59:56;;;;;;;9.50;6.50;;;;;;;18.15;100.00;100413.48;107984;1255;62248;-72
2023/06/23 01:02:23;;;;;;;10.10;6.30;;;;;;;18.16;100.00;100416.84;107371;1255;60429;-72
2023/06/23 01:04:50;;;;;;;10.40;6.50;;;;;;;18.17;100.00;100418.36;107246;1255;73831;-72
2023/06/23 01:07:37;;;;;;;13.00;6.60;;;;;;;18.19;100.00;100415.23;108031;1260;71315;-72
2023/06/23 01:10:13;;;;;;;13.90;6.80;;;;;;;18.19;100.00;100427.88;107159;1256;72401;-72
2023/06/23 01:13:09;;;;;;;9.80;6.40;;;;;;;18.20;100.00;100436.85;107588;1254;61845;-73
2023/06/23 01:15:41;;;;;;;8.60;6.10;;;;;;;18.21;100.00;100439.41;107774;1256;60665;-72
2023/06/23 01:18:24;;;;;;;9.30;6.30;;;;;;;18.23;100.00;100437.67;107728;1256;73188;-72
2023/06/23 01:20:52;;;;;;;10.40;6.20;;;;;;;18.25;100.00;100440.57;107056;1256;69974;-71
2023/06/23 01:23:53;;;;;;;12.30;6.60;;;;;;;18.26;100.00;100439.90;107458;1256;75137;-73
2023/06/23 01:26:48;;;;;;;8.60;6.60;;;;;;;18.26;100.00;100443.29;107359;1256;60884;-74
2023/06/23 01:29:24;;;;;;;9.10;5.90;;;;;;;18.26;100.00;100447.77;107746;1257;60432;-73
2023/06/23 01:32:15;;;;;;;8.00;6.50;;;;;;;18.27;100.00;100448.67;107650;1255;73979;-73
2023/06/23 01:34:49;;;;;;;8.80;6.30;;;;;;;18.29;100.00;100455.70;106974;1254;71334;-73
2023/06/23 01:37:21;;;;;;;10.30;6.50;;;;;;;18.29;100.00;100451.91;108011;1258;71595;-73
2023/06/23 01:39:52;;;;;;;10.40;6.30;;;;;;;18.30;100.00;100458.16;107214;1257;61030;-72
2023/06/23 01:42:23;;;;;;;9.70;6.40;;;;;;;18.31;100.00;100455.17;107137;1256;60515;-72
2023/06/23 01:44:56;;;;;;;10.40;6.70;;;;;;;18.30;100.00;100449.13;108111;1256;73954;-72
2023/06/23 01:47:37;;;;;;;10.80;6.50;;;;;;;18.29;100.00;100447.23;107063;1255;71196;-72
2023/06/23 01:50:07;;;;;;;11.10;6.60;;;;;;;18.30;100.00;100447.90;107091;1255;73114;-73
2023/06/23 01:52:37;;;;;;;9.50;6.50;;;;;;;18.30;100.00;100450.53;107981;1260;60809;-72
2023/06/23 01:55:06;;;;;;;11.50;7.10;;;;;;;18.31;100.00;100449.89;107432;1255;60472;-72
2023/06/23 01:57:36;;;;;;;9.00;6.40;;;;;;;18.32;100.00;100450.45;108061;1255;73567;-72
2023/06/23 02:00:13;;;;;;;8.90;6.20;;;;;;;18.32;100.00;100450.58;107236;1256;69416;-72
2023/06/23 02:02:42;;;;;;;8.50;6.60;;;;;;;18.32;100.00;100446.45;108473;1256;70690;-72
2023/06/23 02:05:11;;;;;;;10.30;6.60;;;;;;;18.32;100.00;100442.14;107403;1254;60904;-72
2023/06/23 02:07:40;;;;;;;9.30;6.70;;;;;;;18.31;100.00;100441.54;108349;1255;59019;-72
2023/06/23 02:10:08;;;;;;;9.40;7.10;;;;;;;18.31;100.00;100438.08;107450;1257;74001;-72
2023/06/23 02:12:39;;;;;;;9.90;7.20;;;;;;;18.30;100.00;100442.58;107945;1256;71262;-73
2023/06/23 02:15:08;;;;;;;9.80;7.30;;;;;;;18.31;100.00;100438.06;107626;1256;71439;-72
2023/06/23 02:17:35;;;;;;;10.00;7.60;;;;;;;18.30;100.00;100439.25;107133;1260;62197;-72
2023/06/23 02:20:13;;;;;;;9.80;7.60;;;;;;;18.31;100.00;100437.08;107310;1257;60328;-74
2023/06/23 02:22:44;;;;;;;9.60;8.10;;;;;;;18.32;100.00;100437.58;107429;1256;73656;-71
2023/06/23 02:25:12;;;;;;;9.40;8.30;;;;;;;18.32;100.00;100441.40;107198;1255;71391;-72
2023/06/23 02:27:40;;;;;;;9.90;8.50;;;;;;;18.31;100.00;100443.52;107365;1256;71118;-71
2023/06/23 02:30:08;;;;;;;12.60;8.70;;;;;;;18.32;100.00;100445.53;107836;1256;62154;-71
2023/06/23 02:32:35;;;;;;;12.70;9.60;;;;;;;18.32;100.00;100445.20;107877;1256;59567;-72
2023/06/23 02:35:03;;;;;;;10.90;9.80;;;;;;;18.32;100.00;100446.27;107037;1261;73901;-71
2023/06/23 02:37:33;;;;;;;11.60;10.40;;;;;;;18.33;100.00;100445.02;107121;1256;70633;-72
2023/06/23 02:40:10;;;;;;;11.70;10.50;;;;;;;18.34;100.00;100446.88;107425;1256;73121;-72
2023/06/23 02:42:42;;;;;;;12.00;10.80;;;;;;;18.35;100.00;100447.52;107307;1254;60982;-71
2023/06/23 02:45:19;;;;;;;13.20;11.80;;;;;;;18.34;100.00;100446.13;107026;1258;60785;-71
2023/06/23 02:47:49;;;;;;;12.20;11.00;;;;;;;18.35;100.00;100445.00;107646;1256;72632;-72
2023/06/23 02:50:19;;;;;;;12.60;11.30;;;;;;;18.35;100.00;100446.45;107191;1259;69915;-71
2023/06/23 02:52:48;;;;;;;12.90;11.70;;;;;;;18.36;100.00;100447.21;108672;1256;73096;-71
2023/06/23 02:55:19;;;;;;;13.20;11.70;;;;;;;18.36;100.00;100443.21;107377;1257;62046;-71
2023/06/23 02:57:49;;;;;;;12.70;11.40;;;;;;;18.36;100.00;100438.91;107355;1255;60439;-71
2023/06/23 03:00:22;;;;;;;13.40;12.10;;;;;;;18.37;100.00;100429.84;107720;1256;72351;-70
2023/06/23 03:02:59;;;;;;;12.80;11.50;;;;;;;18.38;100.00;100425.08;107486;1256;70135;-72
2023/06/23 03:05:26;;;;;;;13.50;12.10;;;;;;;18.38;100.00;100419.77;107226;1256;72731;-73
2023/06/23 03:07:53;;;;;;;13.40;12.00;;;;;;;18.38;100.00;100417.66;107943;1256;60881;-71
2023/06/23 03:10:21;;;;;;;13.60;12.30;;;;;;;18.37;100.00;100416.58;107022;1260;60473;-72
2023/06/23 03:12:48;;;;;;;13.20;11.80;;;;;;;18.37;100.00;100411.27;107920;1259;74312;-73
2023/06/23 03:15:16;;;;;;;14.20;12.70;;;;;;;18.36;100.00;100411.56;107049;1255;69720;-73
2023/06/23 03:17:46;;;;;;;13.20;11.90;;;;;;;18.34;100.00;100417.33;107993;1257;71412;-73
2023/06/23 03:20:25;;;;;;;13.90;12.50;;;;;;;18.33;100.00;100417.35;107282;1258;60568;-72
2023/06/23 03:22:57;;;;;;;14.10;12.80;;;;;;;18.34;100.00;100427.63;107260;1256;59891;-71
2023/06/23 03:25:26;;;;;;;13.10;11.80;;;;;;;18.33;100.00;100430.20;107958;1256;72807;-72
2023/06/23 03:27:56;;;;;;;14.30;12.80;;;;;;;18.34;100.00;100431.55;107021;1257;70039;-72
2023/06/23 03:30:33;;;;;;;13.90;12.50;;;;;;;18.35;100.00;100438.39;107133;1257;72620;-73
2023/06/23 03:33:07;;;;;;;14.30;12.90;;;;;;;18.35;100.00;100444.25;107843;1255;60919;-72
2023/06/23 03:35:44;;;;;;;14.20;12.80;;;;;;;18.36;100.00;100444.15;107987;1255;60533;-72
2023/06/23 03:38:16;;;;;;;14.80;13.20;;;;;;;18.35;100.00;100442.96;107161;1256;73983;-72
2023/06/23 03:40:47;;;;;;;15.40;13.90;;;;;;;18.37;100.00;100447.02;107107;1256;72081;-71
2023/06/23 03:43:30;;;;;;;15.20;13.70;;;;;;;18.37;100.00;100448.90;107525;1257;71434;-72
2023/06/23 03:46:00;;;;;;;15.40;13.90;;;;;;;18.34;100.00;100450.80;107754;1255;60866;-72
2023/06/23 03:48:31;;;;;;;16.10;14.40;;;;;;;18.33;100.00;100452.92;108101;1256;60349;-71
2023/06/23 03:51:00;;;;;;;15.40;13.90;;;;;;;18.34;100.00;100458.85;107029;1260;71965;-71
2023/06/23 03:53:29;;;;;;;15.90;14.30;;;;;;;18.32;100.00;100460.79;107801;1256;71402;-71
2023/06/23 03:55:57;;;;;;;15.40;13.90;;;;;;;18.33;100.00;100464.77;107823;1256;71536;-71
2023/06/23 03:58:25;;;;;;;15.30;13.70;;;;;;;18.32;100.00;100468.14;107436;1255;61128;-71
2023/06/23 04:00:54;;;;;;;15.60;14.00;;;;;;;18.30;100.00;100469.27;107182;1256;60393;-71
2023/06/23 04:03:22;;;;;;;15.70;14.10;;;;;;;18.30;100.00;100467.77;107780;1257;74002;-71
2023/06/23 04:05:50;;;;;;;16.10;14.50;;;;;;;18.30;100.00;100471.30;107616;1257;70802;-72
2023/06/23 04:08:19;;;;;;;15.90;14.20;;;;;;;18.29;100.00;100475.73;107695;1257;71531;-71
2023/06/23 04:10:48;;;;;;;16.60;14.90;;;;;;;18.28;100.00;100479.20;107139;1259;60746;-71
2023/06/23 04:13:17;;;;;;;15.50;13.90;;;;;;;18.27;100.00;100483.54;108139;1257;59320;-71
2023/06/23 04:15:46;;;;;;;15.10;13.50;;;;;;;18.28;100.00;100484.36;107237;1255;73621;-72
2023/06/23 04:18:14;;;;;;;14.70;13.30;;;;;;;18.25;100.00;100488.89;107332;1259;71250;-73
2023/06/23 04:20:44;;;;;;;14.80;13.30;;;;;;;18.23;100.00;100492.35;107898;1259;71852;-71
2023/06/23 04:23:13;;;;;;;15.00;13.60;;;;;;;18.23;100.00;100493.69;107502;1256;62090;-71
2023/06/23 04:25:41;;;;;;;14.50;13.10;;;;;;;18.22;100.00;100495.65;107188;1257;60485;-72
2023/06/23 04:28:11;;;;;;;15.10;13.60;;;;;;;18.19;100.00;100501.92;107788;1260;72819;-72
2023/06/23 04:30:39;;;;;;;14.70;13.30;;;;;;;18.19;100.00;100507.14;107303;1256;70088;-74
2023/06/23 04:33:06;;;;;;;14.80;13.30;;;;;;;18.20;100.00;100506.39;108127;1256;73223;-72
2023/06/23 04:35:33;;;;;;;14.30;12.90;;;;;;;18.19;100.00;100510.20;107109;1255;60773;-70
2023/06/23 04:38:04;;;;;;;14.90;13.20;;;;;;;18.18;100.00;100516.15;108265;1257;60440;-71
2023/06/23 04:40:38;;;;;;;16.20;13.00;;;;;;;18.15;100.00;100526.30;107532;1257;73812;-69
2023/06/23 04:43:13;;;;;;;13.70;12.30;;;;;;;18.12;100.00;100521.81;107372;1255;70179;-70
2023/06/23 04:45:59;;;;;;;16.40;13.80;;;;;;;18.09;100.00;100532.67;107990;1256;71545;-70
2023/06/23 04:48:30;;;;;;;16.20;13.30;;;;;;;18.02;100.00;100532.55;107108;1257;60454;-71
2023/06/23 04:50:59;;;;;;;14.60;12.70;;;;;;;17.97;100.00;100531.23;107854;1256;60499;-72
2023/06/23 04:53:31;;;;;;;14.90;13.30;;;;;;;17.92;100.00;100533.16;107621;1257;73089;-70
2023/06/23 04:56:02;;;;;;;17.20;13.70;;;;;;;17.88;100.00;100535.69;107803;1259;72052;-71
2023/06/23 04:58:34;;;;;;;16.10;14.30;;;;;;;17.86;100.00;100538.23;107310;1256;73724;-70
2023/06/23 05:01:02;;;;;;;16.60;14.40;;;;;;;17.85;100.00;100547.73;107527;1254;60614;-71
2023/06/23 05:03:32;;;;;;;16.00;13.90;;;;;;;17.84;100.00;100549.90;107740;1254;60369;-71
2023/06/23 05:06:00;;;;;;;15.80;14.20;;;;;;;17.84;100.00;100554.83;107386;1256;72467;-69
2023/06/23 05:08:28;;;;;;;11.40;9.30;;;;;;;17.82;100.00;100555.45;107631;1259;71621;-71
2023/06/23 05:11:04;;;;;;;10.30;9.10;;;;;;;17.76;100.00;100561.33;107683;1256;73086;-71
2023/06/23 05:13:33;;;;;;;9.00;8.10;;;;;;;17.71;100.00;100568.40;107934;1255;60819;-71
2023/06/23 05:16:04;;;;;;;8.90;7.70;;;;;;;17.66;100.00;100575.89;106999;1260;60568;-72
2023/06/23 05:18:32;;;;;;;8.10;6.80;;;;;;;17.62;100.00;100578.42;107183;1256;73006;-72
2023/06/23 05:21:01;;;;;;;7.60;6.00;;;;;;;17.56;100.00;100589.10;107254;1258;71296;-71
2023/06/23 05:23:28;;;;;;;7.40;6.30;;;;;;;17.51;100.00;100598.39;107522;1255;72676;-73
2023/06/23 05:26:06;;;;;;;7.20;6.10;;;;;;;17.47;100.00;100610.14;107657;1260;61124;-72
2023/06/23 05:28:37;;;;;;;6.50;5.90;;;;;;;17.45;100.00;100614.21;107955;1255;60426;-71
2023/06/23 05:31:08;;;;;;;6.50;5.30;;;;;;;17.43;100.00;100613.98;106912;1256;73977;-73
2023/06/23 05:33:40;;;;;;;6.70;5.20;;;;;;;17.40;100.00;100614.77;107927;1259;71168;-71
2023/06/23 05:36:10;;;;;;;5.50;4.40;;;;;;;17.41;100.00;100627.00;107151;1260;71752;-71
2023/06/23 05:38:38;;;;;;;4.40;3.70;;;;;;;17.39;100.00;100628.09;107310;1260;60893;-70
2023/06/23 05:41:05;;;;;;;3.70;3.20;;;;;;;17.38;100.00;100629.05;107547;1257;60412;-73
2023/06/23 05:43:33;;;;;;;4.10;3.20;;;;;;;17.36;100.00;100633.23;107587;1258;72657;-74
2023/06/23 05:46:05;;;;;;;3.60;2.80;;;;;;;17.35;100.00;100633.64;106912;1254;69691;-74
2023/06/23 05:48:41;;;;;;;2.60;2.10;;;;;;;17.33;100.00;100640.95;108025;1257;71434;-73
2023/06/23 05:51:11;;;;;;;2.80;1.90;;;;;;;17.30;100.00;100649.83;107862;1259;60818;-75
2023/06/23 05:53:40;;;;;;;4.10;2.20;;;;;;;17.29;100.00;100656.74;106951;1257;61221;-74
2023/06/23 05:56:22;;;;;;;4.10;2.10;;;;;;;17.26;100.00;100663.98;106920;1257;74035;-71
2023/06/23 05:58:55;;;;;;;2.90;1.90;;;;;;;17.24;100.00;100668.99;106901;1259;71289;-71
2023/06/23 06:01:24;;;;;;;2.70;2.10;;;;;;;17.19;100.00;100679.89;107363;1256;72701;-71
2023/06/23 06:04:04;;;;;;;7.70;3.40;;;;;;;17.14;100.00;100693.82;107707;1256;61294;-71
2023/06/23 06:06:35;;;;;;;10.30;6.30;;;;;;;17.09;100.00;100702.55;107601;1257;62765;-72
2023/06/23 06:09:03;;;;;;;11.10;7.40;;;;;;;17.05;100.00;100707.66;108295;1259;72715;-73
2023/06/23 06:11:32;;;;;;;7.20;5.20;;;;;;;17.04;100.00;100713.02;107293;1258;71118;-72
2023/06/23 06:14:01;;;;;;;10.50;6.80;;;;;;;17.00;100.00;100715.16;106756;1259;72993;-71
2023/06/23 06:16:28;;;;;;;5.30;3.80;;;;;;;17.00;100.00;100720.27;106976;1257;60834;-71
2023/06/23 06:18:59;;;;;;;7.20;5.90;;;;;;;16.96;100.00;100721.81;108059;1260;59233;-72
2023/06/23 06:21:28;;;;;;;22.60;17.80;;;;;;;16.92;100.00;100732.89;107623;1257;73532;-70
2023/06/23 06:23:57;;;;;;;10.30;8.00;;;;;;;16.90;100.00;100743.17;107995;1257;73026;-71
2023/06/23 06:26:25;;;;;;;5.30;4.40;;;;;;;16.90;100.00;100754.04;107485;1259;72875;-72
2023/06/23 06:28:54;;;;;;;113.00;83.10;;;;;;;16.92;100.00;100759.66;107827;1256;61474;-72
2023/06/23 06:31:22;;;;;;;29.50;20.50;;;;;;;16.90;100.00;100768.27;107385;1256;61788;-73
2023/06/23 06:33:52;;;;;;;10.90;7.60;;;;;;;16.86;100.00;100770.73;107087;1260;74016;-72
2023/06/23 06:36:21;;;;;;;13.90;10.10;;;;;;;16.85;100.00;100782.04;107003;1259;70606;-71
2023/06/23 06:38:49;;;;;;;15.50;11.90;;;;;;;16.85;100.00;100787.51;107286;1257;71523;-73
2023/06/23 06:41:17;;;;;;;5.30;3.50;;;;;;;16.86;100.00;100798.27;107552;1255;61323;-73
2023/06/23 06:43:44;;;;;;;9.60;7.50;;;;;;;16.86;100.00;100797.81;107678;1256;59577;-72
2023/06/23 06:46:12;;;;;;;7.60;5.20;;;;;;;16.83;100.00;100811.25;107683;1257;73514;-71
2023/06/23 06:48:39;;;;;;;5.10;4.00;;;;;;;16.81;100.00;100817.81;107268;1257;72898;-72
2023/06/23 06:51:07;;;;;;;10.80;8.60;;;;;;;16.81;100.00;100826.55;106717;1257;71577;-74
2023/06/23 06:53:35;;;;;;;6.70;5.20;;;;;;;16.79;100.00;100838.60;106873;1258;62996;-75
2023/06/23 06:56:03;;;;;;;8.30;5.70;;;;;;;16.71;100.00;100846.98;106839;1257;61282;-75
2023/06/23 06:58:30;;;;;;;12.10;9.10;;;;;;;16.66;100.00;100856.55;107499;1257;74745;-69
2023/06/23 07:00:58;;;;;;;8.60;5.70;;;;;;;16.59;100.00;100865.36;106989;1256;69642;-74
2023/06/23 07:03:26;;;;;;;18.90;11.90;;;;;;;16.49;100.00;100872.38;107853;1256;71122;-71
2023/06/23 07:05:53;;;;;;;11.70;8.30;;;;;;;16.44;100.00;100883.88;108122;1259;62026;-69
2023/06/23 07:08:20;;;;;;;14.00;8.60;;;;;;;16.36;100.00;100889.78;107308;1257;62118;-70
2023/06/23 07:10:46;;;;;;;22.20;14.80;;;;;;;16.32;100.00;100899.88;107308;1257;73743;-71
2023/06/23 07:13:13;;;;;;;13.30;10.40;;;;;;;16.29;100.00;100911.83;107089;1256;71527;-72
2023/06/23 07:15:40;;;;;;;7.00;5.60;;;;;;;16.27;100.00;100920.15;107010;1257;71308;-72
2023/06/23 07:18:07;;;;;;;9.70;6.30;;;;;;;16.25;100.00;100930.11;107979;1260;61206;-71
2023/06/23 07:20:34;;;;;;;7.70;5.40;;;;;;;16.18;100.00;100939.47;107348;1258;61150;-74
2023/06/23 07:23:01;;;;;;;18.30;13.50;;;;;;;16.08;100.00;100942.35;106969;1257;74330;-73
2023/06/23 07:25:28;;;;;;;10.40;6.90;;;;;;;16.06;100.00;100943.54;107510;1257;71153;-72
2023/06/23 07:27:55;;;;;;;11.00;7.70;;;;;;;16.04;100.00;100952.71;107607;1257;72532;-72
2023/06/23 07:30:22;;;;;;;43.00;25.60;;;;;;;16.03;100.00;100956.67;106752;1257;62141;-71
2023/06/23 07:32:49;;;;;;;14.30;9.60;;;;;;;16.03;100.00;100963.83;107025;1256;61251;-71
2023/06/23 07:35:15;;;;;;;14.40;9.90;;;;;;;15.95;100.00;100967.65;107823;1257;74714;-71
2023/06/23 07:37:42;;;;;;;10.40;8.10;;;;;;;15.88;100.00;100971.92;106927;1258;70238;-71
2023/06/23 07:40:09;;;;;;;20.10;14.10;;;;;;;15.78;100.00;100976.14;107239;1256;71433;-72
2023/06/23 07:42:36;;;;;;;15.50;10.60;;;;;;;15.74;100.00;100979.95;107475;1257;61252;-72
2023/06/23 07:45:03;;;;;;;25.60;18.50;;;;;;;15.73;100.00;100989.88;107677;1258;59258;-72
2023/06/23 07:47:30;;;;;;;16.00;11.00;;;;;;;15.72;100.00;100995.33;107559;1256;73961;-72
2023/06/23 07:49:57;;;;;;;14.80;10.20;;;;;;;15.71;100.00;101003.13;107049;1257;70872;-72
2023/06/23 07:52:24;;;;;;;16.10;10.90;;;;;;;15.70;100.00;101000.95;106650;1257;71528;-73
2023/06/23 07:54:50;;;;;;;13.00;10.00;;;;;;;15.71;100.00;101005.64;107777;1259;61260;-73
2023/06/23 07:57:19;;;;;;;11.20;8.70;;;;;;;15.72;100.00;101020.98;107153;1255;61388;-72
2023/06/23 07:59:46;;;;;;;86.10;46.40;;;;;;;15.75;100.00;101034.85;107639;1257;74363;-73
2023/06/23 08:02:16;;;;;;;11.50;7.20;;;;;;;15.79;100.00;101033.88;106675;1257;69160;-73
2023/06/23 08:04:43;;;;;;;15.10;9.00;;;;;;;15.80;100.00;101021.73;108176;1256;73056;-72
2023/06/23 08:07:10;;;;;;;9.00;6.20;;;;;;;15.84;100.00;101024.02;107010;1256;62159;-72
2023/06/23 08:09:36;;;;;;;20.30;11.20;;;;;;;15.92;100.00;101032.06;107339;1257;61367;-71
2023/06/23 08:12:04;;;;;;;7.70;5.30;;;;;;;16.01;100.00;101043.61;106522;1257;75330;-71
2023/06/23 08:14:31;;;;;;;7.40;4.80;;;;;;;16.07;100.00;101054.00;107557;1257;71058;-71
2023/06/23 08:16:57;;;;;;;8.90;6.30;;;;;;;16.08;100.00;101054.63;107708;1256;72691;-73
2023/06/23 08:19:24;;;;;;;17.10;11.90;;;;;;;16.07;100.00;101063.60;107390;1254;62780;-72
2023/06/23 08:21:52;;;;;;;26.30;17.80;;;;;;;16.09;100.00;101068.38;106762;1255;61373;-71
2023/06/23 08:24:19;;;;;;;31.70;21.60;;;;;;;16.13;100.00;101078.06;107395;1257;74421;-71
2023/06/23 08:26:45;;;;;;;27.40;19.70;;;;;;;16.15;100.00;101084.08;106980;1257;71059;-71
2023/06/23 08:29:12;;;;;;;15.30;11.20;;;;;;;16.16;100.00;101086.73;106954;1257;72739;-70
2023/06/23 08:31:39;;;;;;;13.80;10.90;;;;;;;16.17;100.00;101092.29;107050;1255;61195;-71
2023/06/23 08:34:06;;;;;;;9.30;8.00;;;;;;;16.20;100.00;101097.52;107040;1256;61151;-70
2023/06/23 08:36:33;;;;;;;10.30;8.10;;;;;;;16.20;100.00;101100.36;107393;1257;74757;-70
2023/06/23 08:38:59;;;;;;;8.50;7.10;;;;;;;16.21;100.00;101106.94;106929;1257;70105;-71
2023/06/23 08:41:29;;;;;;;18.80;13.20;;;;;;;16.22;100.00;101114.89;106952;1257;73206;-72
2023/06/23 08:44:00;;;;;;;13.30;10.00;;;;;;;16.19;100.00;101122.21;108058;1257;63414;-70
2023/06/23 08:46:33;;;;;;;19.50;15.20;;;;;;;16.20;100.00;101124.53;106997;1258;60470;-71
2023/06/23 08:49:22;;;;;;;16.40;11.50;;;;;;;16.23;100.00;101131.63;107391;1257;74450;-72
2023/06/23 08:51:52;;;;;;;7.60;6.50;;;;;;;16.22;100.00;101129.02;107139;1257;70425;-71
2023/06/23 08:54:19;;;;;;;7.00;5.70;;;;;;;16.19;100.00;101139.48;107983;1256;71783;-73
2023/06/23 08:56:47;;;;;;;7.70;6.40;;;;;;;16.16;100.00;101147.78;107016;1257;62353;-72
2023/06/23 08:59:13;;;;;;;8.20;6.80;;;;;;;16.14;100.00;101149.27;106957;1257;61229;-70
2023/06/23 09:01:40;;;;;;;18.40;13.80;;;;;;;16.13;100.00;101152.84;107527;1257;73723;-69
2023/06/23 09:04:07;;;;;;;19.00;14.30;;;;;;;16.10;100.00;101157.98;106759;1257;71224;-71
2023/06/23 09:06:36;;;;;;;10.90;8.70;;;;;;;16.11;100.00;101154.65;107698;1256;70473;-69
2023/06/23 09:09:02;;;;;;;18.90;14.20;;;;;;;16.13;100.00;101158.96;106988;1257;62232;-69
2023/06/23 09:11:30;;;;;;;11.90;8.90;;;;;;;16.10;100.00;101164.15;107894;1256;59778;-70
2023/06/23 09:14:00;;;;;;;8.90;6.80;;;;;;;16.05;100.00;101168.73;106710;1258;73691;-73
2023/06/23 09:16:27;;;;;;;9.10;7.90;;;;;;;16.00;100.00;101170.23;107041;1256;72503;-70
2023/06/23 09:18:55;;;;;;;8.00;6.80;;;;;;;15.98;100.00;101178.67;107503;1256;75358;-71
2023/06/23 09:21:22;;;;;;;12.30;8.70;;;;;;;15.96;100.00;101187.71;107366;1257;61743;-70
2023/06/23 09:24:06;;;;;;;8.80;6.90;;;;;;;15.92;100.00;101193.63;106708;1256;60093;-73
2023/06/23 09:26:50;;;;;;;7.90;6.40;;;;;;;15.86;100.00;101196.73;107266;1256;73488;-75
2023/06/23 09:29:24;;;;;;;10.50;8.70;;;;;;;15.87;100.00;101202.40;107296;1257;69303;-72
2023/06/23 09:31:52;;;;;;;37.70;26.10;;;;;;;15.90;100.00;101204.64;107543;1256;71662;-72
2023/06/23 09:34:30;;;;;;;16.30;10.60;;;;;;;15.93;100.00;101204.53;107081;1256;61589;-72
2023/06/23 09:37:11;;;;;;;7.80;6.30;;;;;;;15.93;100.00;101207.02;106866;1257;61270;-72
2023/06/23 09:39:40;;;;;;;8.60;6.20;;;;;;;15.93;100.00;101209.11;108446;1256;73426;-70
2023/06/23 09:42:11;;;;;;;6.50;5.60;;;;;;;15.95;100.00;101217.30;107041;1257;71078;-70
2023/06/23 09:44:47;;;;;;;7.30;5.50;;;;;;;15.95;100.00;101219.33;106898;1257;71660;-71
2023/06/23 09:47:15;;;;;;;6.50;5.20;;;;;;;15.97;100.00;101216.63;107617;1256;63154;-71
2023/06/23 09:49:44;;;;;;;5.90;5.00;;;;;;;15.96;100.00;101225.27;108149;1256;61032;-71
2023/06/23 09:52:29;;;;;;;8.40;6.00;;;;;;;15.97;100.00;101221.84;106659;1254;75253;-70
2023/06/23 09:54:56;;;;;;;8.20;5.70;;;;;;;16.00;100.00;101231.30;107072;1255;69623;-70
2023/06/23 09:57:23;;;;;;;9.70;6.10;;;;;;;16.01;100.00;101236.08;106748;1254;70668;-71
2023/06/23 09:59:53;;;;;;;14.40;10.60;;;;;;;16.01;100.00;101238.02;107788;1256;61038;-71
2023/06/23 10:02:23;;;;;;;16.20;11.90;;;;;;;16.03;100.00;101240.09;106887;1256;60321;-70
2023/06/23 10:04:57;;;;;;;51.00;31.40;;;;;;;16.06;100.00;101242.06;107669;1256;74714;-71
2023/06/23 10:07:26;;;;;;;10.60;8.30;;;;;;;16.07;100.00;101244.18;106986;1256;70026;-73
2023/06/23 10:09:55;;;;;;;24.60;15.20;;;;;;;16.08;100.00;101245.33;108054;1256;71535;-72
2023/06/23 10:12:42;;;;;;;14.80;11.00;;;;;;;16.06;100.00;101252.98;106912;1256;61917;-70
2023/06/23 10:15:10;;;;;;;11.30;8.00;;;;;;;16.05;100.00;101248.70;106922;1255;61248;-72
2023/06/23 10:17:38;;;;;;;10.50;7.30;;;;;;;16.07;100.00;101251.41;108097;1255;74404;-72
2023/06/23 10:20:05;;;;;;;10.20;7.90;;;;;;;16.08;100.00;101256.54;107053;1256;71478;-70
2023/06/23 10:22:36;;;;;;;12.90;9.00;;;;;;;16.06;100.00;101258.66;107178;1255;72646;-74
2023/06/23 10:25:07;;;;;;;11.10;8.10;;;;;;;16.01;100.00;101261.89;107286;1254;61258;-73
2023/06/23 10:27:35;;;;;;;10.50;7.40;;;;;;;16.00;100.00;101264.42;107495;1255;61237;-71
2023/06/23 10:30:03;;;;;;;17.40;12.10;;;;;;;15.99;100.00;101265.82;108004;1255;74405;-71
2023/06/23 10:32:35;;;;;;;25.60;16.10;;;;;;;15.99;100.00;101270.55;106876;1256;69528;-72
2023/06/23 10:35:09;;;;;;;12.10;8.90;;;;;;;16.00;100.00;101276.88;107751;1255;71786;-73
2023/06/23 10:37:36;;;;;;;11.40;8.20;;;;;;;16.01;100.00;101277.16;106749;1258;61155;-72
2023/06/23 10:40:15;;;;;;;9.10;6.50;;;;;;;16.02;100.00;101280.58;107141;1255;61231;-74
2023/06/23 10:43:01;;;;;;;9.10;6.70;;;;;;;16.02;100.00;101283.18;107348;1256;73341;-73
2023/06/23 10:45:28;;;;;;;11.80;8.40;;;;;;;16.04;100.00;101287.55;106744;1257;70484;-73
2023/06/23 10:47:55;;;;;;;14.30;8.90;;;;;;;16.07;100.00;101290.99;107067;1255;71159;-73
2023/06/23 10:50:22;;;;;;;9.60;7.00;;;;;;;16.08;100.00;101294.17;107980;1255;61985;-74
2023/06/23 10:52:49;;;;;;;37.90;25.70;;;;;;;16.09;100.00;101295.74;107669;1258;61264;-74
2023/06/23 10:55:34;;;;;;;10.50;7.60;;;;;;;16.10;100.00;101297.14;106784;1257;73512;-72
2023/06/23 10:58:28;;;;;;;15.20;9.40;;;;;;;16.12;100.00;101305.55;107307;1256;71401;-72
2023/06/23 11:00:55;;;;;;;10.40;8.10;;;;;;;16.13;100.00;101310.55;108574;1254;70178;-75
2023/06/23 11:03:38;;;;;;;10.20;7.90;;;;;;;16.16;100.00;101316.66;107099;1256;61372;-72
2023/06/23 11:06:07;;;;;;;12.90;8.40;;;;;;;16.17;100.00;101319.54;107713;1255;61416;-73
2023/06/23 11:08:36;;;;;;;10.20;8.20;;;;;;;16.20;100.00;101323.36;106978;1256;73812;-74
2023/06/23 11:11:11;;;;;;;11.50;8.80;;;;;;;16.21;100.00;101326.08;107013;1256;70405;-74
2023/06/23 11:13:45;;;;;;;10.60;8.20;;;;;;;16.24;100.00;101329.81;107576;1256;72658;-75
2023/06/23 11:16:17;;;;;;;9.20;7.50;;;;;;;16.27;100.00;101330.98;106867;1256;61282;-75